James Reserve, California Weather observations

Data are for 10 minute period ending at time listed.
 Day   Time   Solar   Ave.   Ave.  Ave.  Vector  Max.   Baro.   Total    
  of    of     Rad.   Air    Rel.  Wind   Wind   Wind  Press.  Precip.   
Year   Day            Temp.  Hum.  Speed  Dir.   Gust                    
2015   (PST)  Kw/m2    F      %     mph   deg.    mph    mb.     in.     
-------------------------------------------------------------------------
 240    8:30   0.30   73.8    45    0.5   149     1.3   841.4    0.00 
 240    8:40   0.30   76.4    38    0.6   157     2.4   841.5    0.00 
 240    8:50   0.07   77.9    35    0.6    74     1.3   841.5    0.00 
 240    9:00   0.05   78.8    33    0.5    34     1.6   841.5    0.00 
 240    9:10   0.12   78.5    33    0.6   145     1.7   841.5    0.00 
 240    9:20   0.66   78.9    32    0.7   179     2.0   841.5    0.00 
 240    9:30   0.81   80.0    31    0.9   200     3.6   841.5    0.00 
 240    9:40   0.83   80.2    31    0.8   208     2.4   841.5    0.00 
 240    9:50   0.86   81.0    30    0.8   170     2.3   841.4    0.00 
 240   10:00   0.86   81.0    30    0.9   106     2.2   841.3    0.00 
 240   10:10   0.89   81.4    30    0.8   214     2.6   841.3    0.00 
 240   10:20   0.38   81.3    30    0.9    99     2.2   841.3    0.00 
 240   10:30   0.09   82.2    30    1.0   225     2.9   841.3    0.00 
 240   10:40   0.82   82.1    29    1.0   156     3.8   841.2    0.00 
 240   10:50   0.97   81.8    30    0.9   156     2.3   841.1    0.00 
 240   11:00   0.98   84.1    28    0.9   328     2.1   841.0    0.00 
 240   11:10   0.97   85.1    27    0.9   326     2.7   840.9    0.00 
 240   11:20   0.97   83.8    27    0.9   146     2.7   840.8    0.00 
 240   11:30   0.98   83.7    27    1.2   171     3.6   840.7    0.00 
 240   11:40   0.99   83.9    27    1.0   159     3.4   840.6    0.00 
 240   11:50   0.99   84.7    26    0.9   145     1.9   840.5    0.00 
 240   12:00   0.99   85.3    26    0.9   179     2.8   840.4    0.00 
 240   12:10   0.98   85.5    26    0.8    88     2.1   840.4    0.00 
 240   12:20   0.98   86.5    25    1.0   331     3.1   840.4    0.00 
 240   12:30   0.97   85.9    25    1.0   180     2.9   840.3    0.00 
 240   12:40   0.96   85.9    25    1.1   190     2.3   840.3    0.00 
 240   12:50   0.96   86.6    25    1.0   208     2.8   840.2    0.00 
 240   13:00   0.95   86.0    25    1.0   140     2.4   840.1    0.00 
 240   13:10   0.94   86.4    25    1.1   182     5.3   840.1    0.00 
 240   13:20   0.93   86.8    24    1.0    48     2.4   840.0    0.00 
 240   13:30   0.91   86.7    24    1.0   184     3.1   840.0    0.00 
 240   13:40   0.89   86.2    24    1.0   134     2.7   839.9    0.00 
 240   13:50   0.86   86.7    24    0.9   170     3.2   839.8    0.00 
 240   14:00   0.84   86.3    24    1.0   222     2.6   839.7    0.00 
 240   14:10   0.80   87.1    23    1.1   150     4.0   839.5    0.00 
 240   14:20   0.79   85.8    24    1.3    23     2.6   839.5    0.00 
 240   14:30   0.75   85.8    24    1.1   163     3.1   839.4    0.00 
 240   14:40   0.26   85.5    24    1.1   106     3.2   839.3    0.00 
 240   14:50   0.32   85.4    24    1.1   104     2.8   839.3    0.00 
 240   15:00   0.10   85.0    26    0.9   156     2.9   839.3    0.00 
 240   15:10   0.18   84.5    26    1.1   116     2.8   839.3    0.00 
 240   15:20   0.11   83.9    27    1.0    80     2.6   839.3    0.00 
 240   15:30   0.06   83.5    27    0.9    46     2.9   839.3    0.00 
 240   15:40   0.06   83.0    28    1.0   233     2.1   839.3    0.00 
 240   15:50   0.05   82.3    28    0.9   127     2.1   839.3    0.00 
 240   16:00   0.05   81.9    28    0.8    72     1.8   839.4    0.00 
 240   16:10   0.04   81.5    29    0.8    60     2.2   839.5    0.00 
 240   16:20   0.04   80.5    29    0.8   124     2.5   839.5    0.00 
 240   16:30   0.04   80.1    29    0.8   121     2.5   839.6    0.00 
 240   16:40   0.03   79.4    30    0.7   137     1.8   839.6    0.00 
 240   16:50   0.03   78.9    30    0.7   128     1.8   839.6    0.00 
 240   17:00   0.03   77.9    32    0.5   102     1.8   839.6    0.00 
 240   17:10   0.02   77.3    32    0.6    64     1.2   839.6    0.00 
 240   17:20   0.02   76.7    32    0.6   129     1.4   839.6    0.00 
 240   17:30   0.02   76.3    33    0.4    28     1.6   839.5    0.00 
 240   17:40   0.01   75.1    35    0.3    23     0.8   839.6    0.00 
 240   17:50   0.01   74.5    36    0.3    35     0.7   839.6    0.00 
 240   18:00   0.01   73.3    38    0.3   337     0.8   839.7    0.00 
 240   18:10   0.00   72.7    38    0.3     4     0.8   839.7    0.00 
 240   18:20   0.00   72.0    38    0.2    16     0.5   839.8    0.00 
 240   18:30   0.00   70.8    39    0.3   356     0.5   839.8    0.00 
 240   18:40   0.00   69.7    41    0.3    10     0.5   839.9    0.00 
 240   18:50   0.00   68.9    42    0.3   358     0.7   839.9    0.00 
 240   19:00   0.00   67.7    43    0.2   319     0.3   839.9    0.00 
 240   19:10   0.00   66.8    45    0.3     4     0.5   839.9    0.00 
 240   19:20   0.00   66.4    45    0.3   360     0.6   840.0    0.00 
 240   19:30   0.00   66.0    46    0.3    14     0.7   840.1    0.00 
 240   19:40   0.00   65.5    46    0.3   344     0.5   840.1    0.00 
 240   19:50   0.00   64.8    48    0.3   357     0.6   840.2    0.00 
 240   20:00   0.00   64.5    48    0.3   342     0.7   840.3    0.00 
 240   20:10   0.00   64.0    49    0.2   355     0.4   840.3    0.00 
 240   20:20   0.00   63.6    50    0.2   334     0.3   840.3    0.00 
 240   20:30   0.00   62.9    52    0.3    15     0.5   840.5    0.00 
 240   20:40   0.00   62.9    52    0.2    15     0.3   840.5    0.00 
 240   20:50   0.00   62.5    52    0.2   344     0.4   840.5    0.00 
 240   21:00   0.00   62.3    52    0.3     4     0.4   840.5    0.00 
 240   21:10   0.00   62.2    53    0.2     0     0.4   840.5    0.00 
 240   21:20   0.00   61.8    53    0.2   341     0.4   840.5    0.00 
 240   21:30   0.00   61.5    53    0.3    14     0.5   840.4    0.00 
 240   21:40   0.00   61.4    54    0.2   358     0.4   840.4    0.00 
 240   21:50   0.00   61.3    54    0.2     4     0.4   840.5    0.00 
 240   22:00   0.00   61.0    54    0.3   354     0.4   840.5    0.00 
 240   22:10   0.00   60.7    55    0.2    26     0.4   840.5    0.00 
 240   22:20   0.00   60.7    54    0.3    20     0.5   840.6    0.00 
 240   22:30   0.00   60.5    54    0.2    12     0.4   840.5    0.00 
 240   22:40   0.00   60.3    54    0.2     3     0.3   840.5    0.00 
 240   22:50   0.00   60.0    54    0.2     7     0.6   840.4    0.00 
 240   23:00   0.00   59.9    53    0.3    23     0.5   840.4    0.00 
 240   23:10   0.00   59.7    53    0.2    10     0.5   840.4    0.00 
 240   23:20   0.00   59.7    53    0.3    22     0.5   840.5    0.00 
 240   23:30   0.00   59.5    53    0.3    19     0.6   840.4    0.00 
 240   23:40   0.00   59.5    53    0.3    30     0.7   840.4    0.00 
 240   23:50   0.00   59.3    53    0.3    31     0.6   840.3    0.00 
 241    0:00   0.00   59.3    54    0.2    20     0.4   840.3    0.00 
 241    0:10   0.00   59.2    54    0.2    16     0.4   840.2    0.00 
 241    0:20   0.00   59.1    55    0.2     0     0.4   840.2    0.00 
 241    0:30   0.00   58.9    56    0.2     4     0.4   840.1    0.00 
 241    0:40   0.00   58.9    56    0.2     8     0.3   840.1    0.00 
 241    0:50   0.00   58.7    57    0.2   354     0.5   840.0    0.00 
 241    1:00   0.00   58.7    57    0.2    11     0.4   839.9    0.00 
 241    1:10   0.00   58.5    57    0.2     8     0.4   839.8    0.00 
 241    1:20   0.00   58.4    58    0.3    35     0.5   839.8    0.00 
 241    1:30   0.00   58.4    59    0.2    23     0.4   839.8    0.00 
 241    1:40   0.00   58.4    60    0.2    28     0.5   839.8    0.00 
 241    1:50   0.00   58.4    61    0.2    26     0.4   839.8    0.00 
 241    2:00   0.00   58.2    62    0.2    12     0.4   839.8    0.00 
 241    2:10   0.00   58.2    62    0.3    39     0.5   839.8    0.00 
 241    2:20   0.00   58.3    62    0.2    26     0.4   839.8    0.00 
 241    2:30   0.00   58.2    62    0.2   359     0.4   839.7    0.00 
 241    2:40   0.00   58.1    63    0.2     6     0.4   839.7    0.00 
 241    2:50   0.00   58.0    64    0.2    24     0.3   839.7    0.00 
 241    3:00   0.00   58.1    63    0.2     3     0.4   839.7    0.00 
 241    3:10   0.00   58.0    64    0.2    31     0.4   839.7    0.00 
 241    3:20   0.00   57.9    64    0.2    17     0.4   839.7    0.00 
 241    3:30   0.00   57.8    64    0.2   353     0.4   839.6    0.00 
 241    3:40   0.00   57.7    65    0.2     5     0.4   839.6    0.00 
 241    3:50   0.00   57.6    66    0.3    30     0.5   839.7    0.00 
 241    4:00   0.00   57.6    66    0.3    19     0.5   839.7    0.00 
 241    4:10   0.00   57.3    67    0.2    23     0.3   839.7    0.00 
 241    4:20   0.00   57.3    65    0.3    16     0.4   839.7    0.00 
 241    4:30   0.00   57.2    63    0.2     7     0.4   839.7    0.00 
 241    4:40   0.00   56.8    61    0.3    24     0.6   839.7    0.00 
 241    4:50   0.00   56.6    61    0.2    24     0.4   839.8    0.00 
 241    5:00   0.00   56.5    62    0.2    20     0.4   839.9    0.00 
 241    5:10   0.00   56.4    62    0.2    26     0.5   840.0    0.00 
 241    5:20   0.00   56.3    63    0.2    22     0.4   840.0    0.00 
 241    5:30   0.00   56.1    63    0.2    25     0.3   840.1    0.00 
 241    5:40   0.00   56.2    64    0.2    13     0.3   840.1    0.00 
 241    5:50   0.01   56.1    64    0.2    30     0.4   840.2    0.00 
 241    6:00   0.01   56.1    62    0.2    25     0.4   840.2    0.00 
 241    6:10   0.01   56.2    63    0.2    24     0.3   840.3    0.00 
 241    6:20   0.01   56.4    64    0.2    21     0.3   840.3    0.00 
 241    6:30   0.02   56.8    65    0.3    44     0.5   840.4    0.00 
 241    6:40   0.02   57.3    66    0.4    46     0.6   840.4    0.00 
 241    6:50   0.03   57.9    65    0.4    49     0.6   840.5    0.00 
 241    7:00   0.03   58.8    64    0.5    48     0.7   840.5    0.00 
 241    7:10   0.03   59.8    63    0.5    54     0.7   840.5    0.00 
 241    7:20   0.04   60.7    61    0.6    54     0.8   840.5    0.00 
 241    7:30   0.04   61.7    58    0.6    51     0.9   840.5    0.00 
 241    7:40   0.05   62.6    56    0.6    53     0.9   840.5    0.00 
 241    7:50   0.09   63.5    55    0.4    59     0.8   840.6    0.00 
 241    8:00   0.11   64.7    54    0.3    72     0.8   840.7    0.00 
 241    8:10   0.11   66.5    52    0.3   113     0.8   840.7    0.00 
 241    8:20   0.13   69.6    40    0.4   111     1.2   840.8    0.00 

Return to James Reserve graphs page.


Western Regional Climate Center,wrcc@dri.edu